createdAt,value
2018-11-28T00:00:41.272Z,37.80
2018-11-28T00:01:41.363Z,39.90
2018-11-28T00:02:41.449Z,38.30
2018-11-28T00:03:41.538Z,37.00
2018-11-28T00:04:41.625Z,38.50
2018-11-28T00:05:41.717Z,38.10
2018-11-28T00:06:41.803Z,39.90
2018-11-28T00:07:41.890Z,39.20
2018-11-28T00:08:41.968Z,38.30
2018-11-28T00:09:42.055Z,38.80
2018-11-28T00:10:42.144Z,39.50
2018-11-28T00:11:42.230Z,39.00
2018-11-28T00:12:42.319Z,37.40
2018-11-28T00:13:42.407Z,39.30
2018-11-28T00:14:42.492Z,41.00
2018-11-28T00:15:42.580Z,36.70
2018-11-28T00:16:42.667Z,38.20
2018-11-28T00:17:42.753Z,39.00
2018-11-28T00:18:42.844Z,35.70
2018-11-28T00:19:42.933Z,35.40
2018-11-28T00:20:43.016Z,37.50
2018-11-28T00:21:43.105Z,36.50
2018-11-28T00:22:43.192Z,37.90
2018-11-28T00:23:43.278Z,36.90
2018-11-28T00:24:43.367Z,39.50
2018-11-28T00:25:43.474Z,38.20
2018-11-28T00:26:43.564Z,40.10
2018-11-28T00:27:44.243Z,38.60
2018-11-28T00:28:43.706Z,36.90
2018-11-28T00:29:43.794Z,37.60
2018-11-28T00:30:43.878Z,38.80
2018-11-28T00:31:43.966Z,36.80
2018-11-28T00:32:44.083Z,36.60
2018-11-28T00:33:44.164Z,36.20
2018-11-28T00:34:44.250Z,36.10
2018-11-28T00:35:44.336Z,39.30
2018-11-28T00:36:44.424Z,36.00
2018-11-28T00:37:44.508Z,36.20
2018-11-28T00:38:44.597Z,36.70
2018-11-28T00:39:44.683Z,38.20
2018-11-28T00:40:44.770Z,38.50
2018-11-28T00:41:44.855Z,36.40
2018-11-28T00:42:44.946Z,37.20
2018-11-28T00:43:45.030Z,38.90
2018-11-28T00:44:45.158Z,37.00
2018-11-28T00:45:45.215Z,39.50
2018-11-28T00:46:45.302Z,38.50
2018-11-28T00:47:45.389Z,39.80
2018-11-28T00:48:45.478Z,36.90
2018-11-28T00:49:45.567Z,38.00
2018-11-28T00:50:45.647Z,38.30
2018-11-28T00:51:45.731Z,38.40
2018-11-28T00:52:45.818Z,39.20
2018-11-28T00:53:45.905Z,36.70
2018-11-28T00:54:45.997Z,37.80
2018-11-28T00:55:48.442Z,38.60
2018-11-28T00:56:46.165Z,40.30
2018-11-28T00:57:46.252Z,36.70
2018-11-28T00:58:46.341Z,37.50
2018-11-28T00:59:46.427Z,39.60
2018-11-28T01:00:46.518Z,36.10
2018-11-28T01:01:46.604Z,37.30
2018-11-28T01:02:46.689Z,40.40
2018-11-28T01:03:46.774Z,38.20
2018-11-28T01:04:46.860Z,36.60
2018-11-28T01:05:46.951Z,36.80
2018-11-28T01:06:47.039Z,35.20
2018-11-28T01:07:47.126Z,36.60
2018-11-28T01:08:47.214Z,37.40
2018-11-28T01:09:47.304Z,38.10
2018-11-28T01:10:47.392Z,36.50
2018-11-28T01:11:47.478Z,36.80
2018-11-28T01:12:47.563Z,38.40
2018-11-28T01:13:47.648Z,35.80
2018-11-28T01:14:47.736Z,37.70
2018-11-28T01:15:47.822Z,34.20
2018-11-28T01:16:47.911Z,36.20
2018-11-28T01:17:48.008Z,37.70
2018-11-28T01:18:48.095Z,37.70
2018-11-28T01:19:48.182Z,36.90
2018-11-28T01:20:48.288Z,34.80
2018-11-28T01:21:48.375Z,35.30
2018-11-28T01:22:48.462Z,38.10
2018-11-28T01:23:48.628Z,36.20
2018-11-28T01:24:48.683Z,37.90
2018-11-28T01:25:48.771Z,34.90
2018-11-28T01:26:48.859Z,38.80
2018-11-28T01:27:48.954Z,36.80
2018-11-28T01:28:49.036Z,36.30
2018-11-28T01:29:49.125Z,36.30
2018-11-28T01:30:49.209Z,35.70
2018-11-28T01:31:49.299Z,35.90
2018-11-28T01:32:49.387Z,35.00
2018-11-28T01:33:49.479Z,36.00
2018-11-28T01:34:49.564Z,35.80
2018-11-28T01:35:49.652Z,36.90
2018-11-28T01:36:49.739Z,37.00
2018-11-28T01:37:49.830Z,37.80
2018-11-28T01:38:49.918Z,35.90
2018-11-28T01:39:50.007Z,34.50
2018-11-28T01:40:50.096Z,36.70
2018-11-28T01:41:50.180Z,35.70
2018-11-28T01:42:50.268Z,39.00
2018-11-28T01:43:50.356Z,35.00
2018-11-28T01:44:50.442Z,36.80
2018-11-28T01:45:50.539Z,37.00
2018-11-28T01:46:50.625Z,33.80
2018-11-28T01:47:50.722Z,35.40
2018-11-28T01:48:50.805Z,34.90
2018-11-28T01:49:50.888Z,36.00
2018-11-28T01:50:50.973Z,37.70
2018-11-28T01:51:51.067Z,36.80
2018-11-28T01:52:51.155Z,36.30
2018-11-28T01:53:51.244Z,37.40
2018-11-28T01:54:51.331Z,36.60
2018-11-28T01:55:51.417Z,36.60
2018-11-28T01:56:51.510Z,35.20
2018-11-28T01:57:51.595Z,38.40
2018-11-28T01:58:51.682Z,36.60
2018-11-28T01:59:51.767Z,37.90
2018-11-28T02:00:51.859Z,36.30
2018-11-28T02:01:51.944Z,37.40
2018-11-28T02:02:52.035Z,34.50
2018-11-28T02:03:52.122Z,36.80
2018-11-28T02:04:52.208Z,33.60
2018-11-28T02:05:52.298Z,36.50
2018-11-28T02:06:52.386Z,37.50
2018-11-28T02:07:52.475Z,35.30
2018-11-28T02:08:52.563Z,36.00
2018-11-28T02:09:52.652Z,37.50
2018-11-28T02:10:52.740Z,36.10
2018-11-28T02:11:52.825Z,36.40
2018-11-28T02:12:52.914Z,36.00
2018-11-28T02:13:53.002Z,35.90
2018-11-28T02:14:53.087Z,38.50
2018-11-28T02:15:53.173Z,35.50
2018-11-28T02:16:53.264Z,35.50
2018-11-28T02:17:53.349Z,37.20
2018-11-28T02:18:53.438Z,34.10
2018-11-28T02:19:53.528Z,35.10
2018-11-28T02:20:53.613Z,34.60
2018-11-28T02:21:53.703Z,37.40
2018-11-28T02:22:53.811Z,36.20
2018-11-28T02:23:53.901Z,36.70
2018-11-28T02:24:53.985Z,37.70
2018-11-28T02:25:54.075Z,35.00
2018-11-28T02:26:54.163Z,36.40
2018-11-28T02:27:54.250Z,34.80
2018-11-28T02:28:54.339Z,35.30
2018-11-28T02:29:54.427Z,33.80
2018-11-28T02:30:54.527Z,34.90
2018-11-28T02:31:54.604Z,37.10
2018-11-28T02:32:54.740Z,35.10
2018-11-28T02:33:54.788Z,33.80
2018-11-28T02:34:54.879Z,38.70
2018-11-28T02:35:54.960Z,35.10
2018-11-28T02:36:55.050Z,36.90
2018-11-28T02:37:55.141Z,35.90
2018-11-28T02:38:55.230Z,33.40
2018-11-28T02:39:55.319Z,37.40
2018-11-28T02:40:55.406Z,34.10
2018-11-28T02:41:55.490Z,36.20
2018-11-28T02:42:55.587Z,35.80
2018-11-28T02:43:55.680Z,33.10
2018-11-28T02:44:55.777Z,35.50
2018-11-28T02:47:27.851Z,32.30
2018-11-28T02:48:27.939Z,35.40
2018-11-28T02:49:28.027Z,35.60
2018-11-28T02:50:28.114Z,33.60
2018-11-28T02:51:28.201Z,36.00
2018-11-28T02:52:28.289Z,36.00
2018-11-28T02:53:28.376Z,33.30
2018-11-28T02:54:28.464Z,32.80
2018-11-28T02:55:28.548Z,32.70
2018-11-28T02:56:28.637Z,35.20
2018-11-28T02:57:28.726Z,34.50
2018-11-28T02:58:28.813Z,34.50
2018-11-28T02:59:28.897Z,35.70
2018-11-28T03:00:28.987Z,36.40
2018-11-28T03:01:29.074Z,33.50
2018-11-28T03:02:29.164Z,34.70
2018-11-28T03:03:29.250Z,35.60
2018-11-28T03:04:29.330Z,32.60
2018-11-28T03:05:29.415Z,33.50
2018-11-28T03:06:29.502Z,33.00
2018-11-28T03:07:29.591Z,35.10
2018-11-28T03:08:29.677Z,36.20
2018-11-28T03:09:29.764Z,34.50
2018-11-28T03:10:29.852Z,34.60
2018-11-28T03:11:29.941Z,36.60
2018-11-28T03:12:30.029Z,33.50
2018-11-28T03:13:30.107Z,34.50
2018-11-28T03:14:30.192Z,33.50
2018-11-28T03:15:30.279Z,33.40
2018-11-28T03:16:30.369Z,35.40
2018-11-28T03:17:30.455Z,35.90
2018-11-28T03:18:30.553Z,35.60
2018-11-28T03:19:30.629Z,36.90
2018-11-28T03:20:30.715Z,31.20
2018-11-28T03:21:30.805Z,35.00
2018-11-28T03:22:30.892Z,33.90
2018-11-28T03:23:31.018Z,34.90
2018-11-28T03:26:14.129Z,33.50
2018-11-28T03:27:14.214Z,38.10
2018-11-28T03:28:14.301Z,32.70
2018-11-28T03:29:14.389Z,34.40
2018-11-28T03:30:14.492Z,35.00
2018-11-28T03:31:14.566Z,33.50
2018-11-28T03:32:14.667Z,35.50
2018-11-28T03:33:14.740Z,33.70
2018-11-28T03:34:14.826Z,34.00
2018-11-28T03:35:14.912Z,35.00
2018-11-28T03:36:15.002Z,33.90
2018-11-28T03:37:15.089Z,34.40
2018-11-28T03:38:15.177Z,36.90
2018-11-28T03:39:15.260Z,34.40
2018-11-28T03:40:15.350Z,34.90
2018-11-28T03:41:15.438Z,31.80
2018-11-28T03:42:15.523Z,33.70
2018-11-28T03:43:15.673Z,35.50
2018-11-28T03:44:15.727Z,31.90
2018-11-28T03:45:15.814Z,34.50
2018-11-28T03:46:15.900Z,33.70
2018-11-28T03:47:15.990Z,32.20
2018-11-28T03:48:16.083Z,33.20
2018-11-28T03:49:16.171Z,32.40
2018-11-28T03:50:16.259Z,33.10
2018-11-28T03:51:16.348Z,34.00
2018-11-28T03:52:16.448Z,34.40
2018-11-28T03:53:16.529Z,31.10
2018-11-28T03:54:16.616Z,32.80
2018-11-28T03:55:16.704Z,34.70
2018-11-28T03:56:16.794Z,38.80
2018-11-28T03:57:16.884Z,46.50
2018-11-28T03:58:16.971Z,46.10
2018-11-28T03:59:17.059Z,41.20
2018-11-28T04:00:17.142Z,40.10
2018-11-28T04:01:17.233Z,39.10
2018-11-28T04:02:17.320Z,36.30
2018-11-28T04:03:17.407Z,36.20
2018-11-28T04:04:17.494Z,35.40
2018-11-28T04:05:17.584Z,38.10
2018-11-28T04:06:17.675Z,35.90
2018-11-28T04:07:17.759Z,34.10
2018-11-28T04:08:17.846Z,34.50
2018-11-28T04:09:17.932Z,34.80
2018-11-28T04:10:18.019Z,35.90
2018-11-28T04:11:18.106Z,34.20
2018-11-28T04:12:18.197Z,34.80
2018-11-28T04:13:18.291Z,37.00
2018-11-28T04:14:18.368Z,36.90
2018-11-28T04:15:18.459Z,34.00
2018-11-28T04:16:18.539Z,34.50
2018-11-28T04:17:18.625Z,33.70
2018-11-28T04:18:18.724Z,34.40
2018-11-28T04:19:18.809Z,34.30
2018-11-28T04:20:18.901Z,33.60
2018-11-28T04:21:18.985Z,34.00
2018-11-28T04:22:19.075Z,36.30
2018-11-28T04:23:19.160Z,35.40
2018-11-28T04:24:19.248Z,35.30
2018-11-28T04:25:19.337Z,32.70
2018-11-28T04:26:19.427Z,33.80
2018-11-28T04:27:19.569Z,33.70
2018-11-28T04:28:19.655Z,36.20
2018-11-28T04:29:19.742Z,32.80
2018-11-28T04:30:19.828Z,32.70
2018-11-28T04:31:19.914Z,31.90
2018-11-28T04:32:20.011Z,34.00
2018-11-28T04:33:20.092Z,35.40
2018-11-28T04:34:20.177Z,35.60
2018-11-28T04:35:20.268Z,33.50
2018-11-28T04:36:20.353Z,30.90
2018-11-28T04:37:20.441Z,32.00
2018-11-28T04:38:20.530Z,32.60
2018-11-28T04:39:20.630Z,30.40
2018-11-28T04:40:20.708Z,34.00
2018-11-28T04:41:20.789Z,32.90
2018-11-28T04:42:20.876Z,30.60
2018-11-28T04:43:20.965Z,31.50
2018-11-28T04:44:21.047Z,34.50
2018-11-28T04:45:21.137Z,34.60
2018-11-28T04:46:21.228Z,34.80
2018-11-28T04:47:21.304Z,32.60
2018-11-28T04:48:21.391Z,34.60
2018-11-28T04:49:21.490Z,34.80
2018-11-28T04:50:21.573Z,31.40
2018-11-28T04:51:21.658Z,32.10
2018-11-28T04:52:21.766Z,37.30
2018-11-28T04:53:21.826Z,31.80
2018-11-28T04:54:21.913Z,32.10
2018-11-28T04:55:22.002Z,32.70
2018-11-28T04:56:22.089Z,31.80
2018-11-28T04:57:22.177Z,35.10
2018-11-28T04:58:22.255Z,35.10
2018-11-28T04:59:22.356Z,33.60
2018-11-28T05:00:22.447Z,32.40
2018-11-28T05:01:22.530Z,35.50
2018-11-28T05:02:22.618Z,35.30
2018-11-28T05:03:22.705Z,31.80
2018-11-28T05:04:22.792Z,32.30
2018-11-28T05:05:22.880Z,34.00
2018-11-28T05:06:22.972Z,32.40
2018-11-28T05:07:23.057Z,30.50
2018-11-28T05:08:23.146Z,34.00
2018-11-28T05:09:23.230Z,32.10
2018-11-28T05:10:23.339Z,32.40
2018-11-28T05:11:23.428Z,33.90
2018-11-28T05:12:23.521Z,32.90
2018-11-28T05:13:23.605Z,36.40
2018-11-28T05:14:23.694Z,32.50
2018-11-28T05:15:23.783Z,33.10
2018-11-28T05:16:23.870Z,32.80
2018-11-28T05:17:23.955Z,32.00
2018-11-28T05:18:24.042Z,33.40
2018-11-28T05:19:24.133Z,31.10
2018-11-28T05:20:24.218Z,33.20
2018-11-28T05:21:24.307Z,34.10
2018-11-28T05:22:24.394Z,31.80
2018-11-28T05:23:24.485Z,33.00
2018-11-28T05:24:24.566Z,35.80
2018-11-28T05:25:24.664Z,31.50
2018-11-28T05:26:24.747Z,32.50
2018-11-28T05:27:24.832Z,32.90
2018-11-28T05:28:24.919Z,33.30
2018-11-28T05:29:25.001Z,33.80
2018-11-28T05:30:25.087Z,32.90
2018-11-28T05:31:25.175Z,31.90
2018-11-28T05:32:25.264Z,32.90
2018-11-28T05:33:25.352Z,31.70
2018-11-28T05:34:25.439Z,32.10
2018-11-28T05:35:25.519Z,33.40
2018-11-28T05:36:25.604Z,32.80
2018-11-28T05:37:25.692Z,33.60
2018-11-28T05:38:25.780Z,34.10
2018-11-28T05:39:25.869Z,34.30
2018-11-28T05:40:25.953Z,32.80
2018-11-28T05:41:26.045Z,30.90
2018-11-28T05:42:26.133Z,31.30
2018-11-28T05:43:26.217Z,30.70
2018-11-28T05:44:26.305Z,31.90
2018-11-28T05:45:26.392Z,32.00
2018-11-28T05:46:26.522Z,34.00
2018-11-28T05:47:26.527Z,33.70
2018-11-28T05:48:26.617Z,31.40
2018-11-28T05:49:26.702Z,32.70
2018-11-28T05:50:26.790Z,32.60
2018-11-28T05:51:26.878Z,33.20
2018-11-28T05:52:26.998Z,34.40
2018-11-28T05:53:27.128Z,33.20
2018-11-28T05:54:27.218Z,31.70
2018-11-28T05:55:27.303Z,32.30
2018-11-28T05:56:27.420Z,31.30
2018-11-28T05:57:27.502Z,33.60
2018-11-28T05:58:27.595Z,33.60
2018-11-28T05:59:27.717Z,34.00
2018-11-28T06:00:27.768Z,31.20
2018-11-28T06:01:27.852Z,31.70
2018-11-28T06:02:27.939Z,29.50
2018-11-28T06:03:28.027Z,31.60
2018-11-28T06:04:28.116Z,32.70
2018-11-28T06:05:28.202Z,34.40
2018-11-28T06:06:28.294Z,33.00
2018-11-28T06:07:28.370Z,33.80
2018-11-28T06:08:28.458Z,31.40
2018-11-28T06:09:28.542Z,34.00
2018-11-28T06:10:28.633Z,31.80
2018-11-28T06:11:28.719Z,33.30
2018-11-28T06:12:28.802Z,32.80
2018-11-28T06:13:28.901Z,31.50
2018-11-28T06:14:28.994Z,33.10
2018-11-28T06:15:29.075Z,33.10
2018-11-28T06:16:29.163Z,32.30
2018-11-28T06:17:29.253Z,34.90
2018-11-28T06:18:29.344Z,32.70
2018-11-28T06:19:29.428Z,32.80
2018-11-28T06:20:29.517Z,33.70
2018-11-28T06:21:29.607Z,32.50
2018-11-28T06:22:29.696Z,33.90
2018-11-28T06:23:29.786Z,33.80
2018-11-28T06:24:29.888Z,35.40
2018-11-28T06:25:29.975Z,38.80
2018-11-28T06:26:30.063Z,34.70
2018-11-28T06:27:30.151Z,37.10
2018-11-28T06:28:30.241Z,38.50
2018-11-28T06:29:30.341Z,36.10
2018-11-28T06:30:30.429Z,36.00
2018-11-28T06:31:30.516Z,36.60
2018-11-28T06:32:30.603Z,36.80
2018-11-28T06:33:30.690Z,37.30
2018-11-28T06:34:30.779Z,38.00
2018-11-28T06:35:30.874Z,37.30
2018-11-28T06:36:30.955Z,32.20
2018-11-28T06:37:31.045Z,36.40
2018-11-28T06:38:31.131Z,35.30
2018-11-28T06:39:31.218Z,36.10
2018-11-28T06:40:31.310Z,36.90
2018-11-28T06:41:31.395Z,36.20
2018-11-28T06:42:31.482Z,37.30
2018-11-28T06:43:31.566Z,38.50
2018-11-28T06:44:31.658Z,36.90
2018-11-28T06:45:31.758Z,36.50
2018-11-28T06:46:31.847Z,36.50
2018-11-28T06:47:31.933Z,35.80
2018-11-28T06:48:32.020Z,34.00
2018-11-28T06:49:32.107Z,34.90
2018-11-28T06:50:32.196Z,32.50
2018-11-28T06:51:32.283Z,35.50
2018-11-28T06:52:32.371Z,36.70
2018-11-28T06:53:32.457Z,37.50
2018-11-28T06:54:32.545Z,39.10
2018-11-28T06:55:32.649Z,40.60
2018-11-28T06:56:32.766Z,38.90
2018-11-28T06:57:32.851Z,38.10
2018-11-28T06:58:32.940Z,37.40
2018-11-28T06:59:33.024Z,36.10
2018-11-28T07:00:33.111Z,39.60
2018-11-28T07:01:33.201Z,35.80
2018-11-28T07:02:33.302Z,34.60
2018-11-28T07:03:33.367Z,36.20
2018-11-28T07:04:33.456Z,34.30
2018-11-28T07:05:33.541Z,32.90
2018-11-28T07:06:33.631Z,32.20
2018-11-28T07:07:33.711Z,33.40
2018-11-28T07:08:33.802Z,32.40
2018-11-28T07:09:33.886Z,33.80
2018-11-28T07:10:33.977Z,34.80
2018-11-28T07:11:34.062Z,33.30
2018-11-28T07:12:34.154Z,35.10
2018-11-28T07:13:34.244Z,31.20
2018-11-28T07:14:34.322Z,32.20
2018-11-28T07:15:34.406Z,34.50
2018-11-28T07:16:34.493Z,34.20
2018-11-28T07:17:34.581Z,34.60
2018-11-28T07:18:34.710Z,35.60
2018-11-28T07:19:34.748Z,34.80
2018-11-28T07:20:34.830Z,33.90
2018-11-28T07:21:34.915Z,33.20
2018-11-28T07:22:35.002Z,33.80
2018-11-28T07:23:35.088Z,34.20
2018-11-28T07:24:35.180Z,35.70
2018-11-28T07:25:35.266Z,37.30
2018-11-28T07:26:35.348Z,39.50
2018-11-28T07:27:35.434Z,40.40
2018-11-28T07:28:35.521Z,45.60
2018-11-28T07:29:35.611Z,43.20
2018-11-28T07:30:37.836Z,43.40
2018-11-28T07:31:35.835Z,42.10
2018-11-28T07:32:35.926Z,40.90
2018-11-28T07:33:36.014Z,40.10
2018-11-28T07:34:36.100Z,37.20
2018-11-28T07:35:36.191Z,38.40
2018-11-28T07:36:36.275Z,39.00
2018-11-28T07:37:36.364Z,37.50
2018-11-28T07:38:36.450Z,39.00
2018-11-28T07:39:36.558Z,38.00
2018-11-28T07:40:36.627Z,36.20
2018-11-28T07:41:36.714Z,36.80
2018-11-28T07:42:36.802Z,37.50
2018-11-28T07:43:36.888Z,38.30
2018-11-28T07:44:36.976Z,38.60
2018-11-28T07:45:37.061Z,42.00
2018-11-28T07:46:37.153Z,39.40
2018-11-28T07:47:37.238Z,39.30
2018-11-28T07:48:37.327Z,37.00
2018-11-28T07:49:37.416Z,38.50
2018-11-28T07:50:37.500Z,40.70
2018-11-28T07:51:37.586Z,40.50
2018-11-28T07:52:37.671Z,40.80
2018-11-28T07:53:37.852Z,37.10
2018-11-28T07:54:37.845Z,38.50
2018-11-28T07:55:37.931Z,37.80
2018-11-28T07:56:38.018Z,39.50
2018-11-28T07:57:38.102Z,37.60
2018-11-28T07:58:38.187Z,36.50
2018-11-28T07:59:38.275Z,36.30
2018-11-28T08:00:38.361Z,38.00
2018-11-28T08:01:38.447Z,37.80
2018-11-28T08:02:38.535Z,41.70
2018-11-28T08:03:38.616Z,38.00
2018-11-28T08:04:38.702Z,41.40
2018-11-28T08:05:38.789Z,40.10
2018-11-28T08:06:38.876Z,38.60
2018-11-28T08:07:38.966Z,38.00
2018-11-28T08:08:39.051Z,36.40
2018-11-28T08:09:39.132Z,36.00
2018-11-28T08:10:39.217Z,36.30
2018-11-28T08:11:39.310Z,38.90
2018-11-28T08:12:39.399Z,40.40
2018-11-28T08:13:39.483Z,37.90
2018-11-28T08:14:39.571Z,41.30
2018-11-28T08:15:39.674Z,41.40
2018-11-28T08:16:39.740Z,43.70
2018-11-28T08:17:39.832Z,39.10
2018-11-28T08:18:39.914Z,39.20
2018-11-28T08:19:40.003Z,41.00
2018-11-28T08:20:40.088Z,39.90
2018-11-28T08:21:40.176Z,41.00
2018-11-28T08:22:40.263Z,37.70
2018-11-28T08:23:40.350Z,37.50
2018-11-28T08:24:40.521Z,37.70
2018-11-28T08:25:40.533Z,38.00
2018-11-28T08:26:40.610Z,35.60
2018-11-28T08:27:40.805Z,37.40
2018-11-28T08:28:40.791Z,35.40
2018-11-28T08:29:40.877Z,34.70
2018-11-28T08:30:40.962Z,36.40
2018-11-28T08:31:41.054Z,33.70
2018-11-28T08:32:41.152Z,35.80
2018-11-28T08:33:41.223Z,36.60
2018-11-28T08:34:41.317Z,36.00
2018-11-28T08:35:41.398Z,32.60
2018-11-28T08:36:41.486Z,34.50
2018-11-28T08:37:41.575Z,35.50
2018-11-28T08:38:41.661Z,34.30
2018-11-28T08:39:41.768Z,35.80
2018-11-28T08:40:41.848Z,36.10
2018-11-28T08:41:41.935Z,39.50
2018-11-28T08:42:42.023Z,33.40
2018-11-28T08:43:42.113Z,38.40
2018-11-28T08:44:42.199Z,35.30
2018-11-28T08:45:42.316Z,37.30
2018-11-28T08:46:42.376Z,38.60
2018-11-28T08:47:42.465Z,37.20
2018-11-28T08:48:42.557Z,37.30
2018-11-28T08:49:42.642Z,34.80
2018-11-28T08:50:42.737Z,34.20
2018-11-28T08:51:42.826Z,36.40
2018-11-28T08:52:42.914Z,36.30
2018-11-28T08:53:43.001Z,34.50
2018-11-28T08:54:43.092Z,37.40
2018-11-28T08:55:43.182Z,34.50
2018-11-28T08:56:43.270Z,35.50
2018-11-28T08:57:43.398Z,33.00
2018-11-28T08:58:43.438Z,35.60
2018-11-28T08:59:43.522Z,35.50
2018-11-28T09:00:43.610Z,35.30
2018-11-28T09:01:43.698Z,34.40
2018-11-28T09:02:43.791Z,34.10
2018-11-28T09:03:43.877Z,33.00
2018-11-28T09:04:43.992Z,34.60
2018-11-28T09:05:44.079Z,35.50
2018-11-28T09:06:44.169Z,32.50
2018-11-28T09:07:44.254Z,31.50
2018-11-28T09:08:44.341Z,34.80
2018-11-28T09:09:44.430Z,33.90
2018-11-28T09:10:44.558Z,33.90
2018-11-28T09:11:44.649Z,36.00
2018-11-28T09:12:44.768Z,35.40
2018-11-28T09:13:44.858Z,36.50
2018-11-28T09:14:44.951Z,35.10
2018-11-28T09:15:45.033Z,37.60
2018-11-28T09:16:45.122Z,36.60
2018-11-28T09:17:45.234Z,35.40
2018-11-28T09:18:45.319Z,34.60
2018-11-28T09:19:45.407Z,33.40
2018-11-28T09:20:45.503Z,35.40
2018-11-28T09:21:45.588Z,34.70
2018-11-28T09:22:45.669Z,34.70
2018-11-28T09:23:45.763Z,33.10
2018-11-28T09:24:45.851Z,34.90
2018-11-28T09:25:45.942Z,33.90
2018-11-28T09:26:46.030Z,33.90
2018-11-28T09:27:46.115Z,34.70
2018-11-28T09:28:46.204Z,34.70
2018-11-28T09:29:46.292Z,35.00
2018-11-28T09:30:46.381Z,35.70
2018-11-28T09:31:46.470Z,33.60
2018-11-28T09:32:46.562Z,35.40
2018-11-28T09:33:46.642Z,32.50
2018-11-28T09:34:46.734Z,35.10
2018-11-28T09:35:46.823Z,33.90
2018-11-28T09:36:46.909Z,33.10
2018-11-28T09:37:46.998Z,34.00
2018-11-28T09:38:47.082Z,33.10
2018-11-28T09:39:47.172Z,32.80
2018-11-28T09:40:47.260Z,33.20
2018-11-28T09:41:47.354Z,38.90
2018-11-28T09:42:47.439Z,33.50
2018-11-28T09:43:47.527Z,32.30
2018-11-28T09:44:47.613Z,34.50
2018-11-28T09:45:47.701Z,35.10
2018-11-28T09:46:47.790Z,33.80
2018-11-28T09:47:47.878Z,32.40
2018-11-28T09:48:47.957Z,34.60
2018-11-28T09:49:48.066Z,33.80
2018-11-28T09:50:48.150Z,34.70
2018-11-28T09:51:48.237Z,33.60
2018-11-28T09:52:48.327Z,31.10
2018-11-28T09:53:48.414Z,32.20
2018-11-28T09:54:48.506Z,34.50
2018-11-28T09:55:48.594Z,32.70
2018-11-28T09:56:48.679Z,36.70
2018-11-28T09:57:48.767Z,39.90
2018-11-28T09:58:48.858Z,34.40
2018-11-28T09:59:48.962Z,35.40
2018-11-28T10:00:49.101Z,34.50
2018-11-28T10:01:49.181Z,34.20
2018-11-28T10:02:49.264Z,34.70
2018-11-28T10:03:49.352Z,33.00
2018-11-28T10:04:49.445Z,34.50
2018-11-28T10:05:49.523Z,32.60
2018-11-28T10:06:49.613Z,33.80
2018-11-28T10:07:49.766Z,34.70
2018-11-28T10:08:49.790Z,33.10
2018-11-28T10:09:49.878Z,33.90
2018-11-28T10:10:49.967Z,33.80
2018-11-28T10:11:50.056Z,33.20
2018-11-28T10:12:50.146Z,31.30
2018-11-28T10:13:50.236Z,31.60
2018-11-28T10:14:50.326Z,30.50
2018-11-28T10:15:50.415Z,31.60
2018-11-28T10:16:51.170Z,32.20
2018-11-28T10:17:50.599Z,30.10
2018-11-28T10:18:50.682Z,33.50
2018-11-28T10:19:50.782Z,31.90
2018-11-28T10:20:50.873Z,31.10
2018-11-28T10:21:50.960Z,35.00
2018-11-28T10:22:51.050Z,32.70
2018-11-28T10:23:51.138Z,31.60
2018-11-28T10:24:51.229Z,32.00
2018-11-28T10:25:51.319Z,32.60
2018-11-28T10:26:51.407Z,32.10
2018-11-28T10:27:51.499Z,31.20
2018-11-28T10:28:51.586Z,33.00
2018-11-28T10:29:51.675Z,32.80
2018-11-28T10:30:51.768Z,31.50
2018-11-28T10:31:51.854Z,32.50
2018-11-28T10:32:51.939Z,31.50
2018-11-28T10:33:52.043Z,31.50
2018-11-28T10:34:52.122Z,30.60
2018-11-28T10:35:52.215Z,30.80
2018-11-28T10:36:52.304Z,30.40
2018-11-28T10:37:52.408Z,31.90
2018-11-28T10:38:52.485Z,29.10
2018-11-28T10:39:52.572Z,28.70
2018-11-28T10:40:52.663Z,28.80
2018-11-28T10:41:52.754Z,29.90
2018-11-28T10:42:52.842Z,31.00
2018-11-28T10:43:52.932Z,30.30
2018-11-28T10:44:53.031Z,29.50
2018-11-28T10:45:53.126Z,31.60
2018-11-28T10:46:53.214Z,29.70
2018-11-28T10:47:53.304Z,30.70
2018-11-28T10:48:53.394Z,30.50
2018-11-28T10:49:53.485Z,29.20
2018-11-28T10:50:53.575Z,32.00
2018-11-28T10:51:53.663Z,28.30
2018-11-28T10:52:53.758Z,30.20
2018-11-28T10:53:53.972Z,30.90
2018-11-28T10:54:53.929Z,30.10
2018-11-28T10:55:54.020Z,27.40
2018-11-28T10:56:54.109Z,29.10
2018-11-28T10:57:54.231Z,29.00
2018-11-28T10:58:54.288Z,30.50
2018-11-28T10:59:54.376Z,30.40
2018-11-28T11:00:54.468Z,31.70
2018-11-28T11:01:54.557Z,34.00
2018-11-28T11:02:54.650Z,31.40
2018-11-28T11:03:54.737Z,31.40
2018-11-28T11:04:54.856Z,28.90
2018-11-28T11:05:54.924Z,29.20
2018-11-28T11:06:55.012Z,31.90
2018-11-28T11:07:55.102Z,32.40
2018-11-28T11:08:55.191Z,30.40
2018-11-28T11:09:55.282Z,28.50
2018-11-28T11:10:55.371Z,32.60
2018-11-28T11:11:55.468Z,31.10
2018-11-28T11:12:55.553Z,28.80
2018-11-28T11:13:55.641Z,30.40
2018-11-28T11:14:55.727Z,29.60
2018-11-28T11:15:55.820Z,30.10
2018-11-28T11:16:55.910Z,32.80
2018-11-28T11:18:01.997Z,30.70
2018-11-28T11:18:56.101Z,32.70
2018-11-28T11:19:56.188Z,30.70
2018-11-28T11:20:56.279Z,28.40
2018-11-28T11:21:56.371Z,31.40
2018-11-28T11:22:56.459Z,31.40
2018-11-28T11:23:56.550Z,29.40
2018-11-28T11:24:56.660Z,36.20
2018-11-28T11:25:56.748Z,30.00
2018-11-28T11:26:56.839Z,35.60
2018-11-28T11:27:56.930Z,29.80
2018-11-28T11:28:57.020Z,29.20
2018-11-28T11:29:57.109Z,28.60
2018-11-28T11:30:57.202Z,30.90
2018-11-28T11:31:57.290Z,30.80
2018-11-28T11:32:57.375Z,31.10
2018-11-28T11:33:57.465Z,32.40
2018-11-28T11:34:57.557Z,32.20
2018-11-28T11:35:57.657Z,32.00
2018-11-28T11:36:57.743Z,25.50
2018-11-28T11:37:57.826Z,25.00
2018-11-28T11:38:57.922Z,30.70
2018-11-28T11:39:58.011Z,25.70
2018-11-28T11:40:58.106Z,31.10
2018-11-28T11:41:58.193Z,30.80
2018-11-28T11:42:58.283Z,30.90
2018-11-28T11:43:58.373Z,29.40
2018-11-28T11:44:58.466Z,25.80
2018-11-28T11:45:58.557Z,29.80
2018-11-28T11:46:58.649Z,26.20
2018-11-28T11:47:58.746Z,29.00
2018-11-28T11:48:58.829Z,27.20
2018-11-28T11:49:58.929Z,21.10
2018-11-28T11:50:59.013Z,25.10
2018-11-28T11:51:59.111Z,22.80
2018-11-28T11:52:59.192Z,24.80
2018-11-28T11:53:59.284Z,22.50
2018-11-28T11:54:59.375Z,24.20
2018-11-28T11:55:59.463Z,24.30
2018-11-28T11:56:59.551Z,25.20
2018-11-28T11:57:59.642Z,29.30
2018-11-28T11:58:59.728Z,26.90
2018-11-28T11:59:59.819Z,26.70
2018-11-28T12:00:59.909Z,26.40
2018-11-28T12:01:59.999Z,24.60
2018-11-28T12:03:00.094Z,23.60
2018-11-28T12:04:00.183Z,27.40
2018-11-28T12:05:00.276Z,25.00
2018-11-28T12:06:00.366Z,26.20
2018-11-28T12:07:00.454Z,22.70
2018-11-28T12:08:00.543Z,24.90
2018-11-28T12:09:00.654Z,22.20
2018-11-28T12:10:00.745Z,21.20
2018-11-28T12:11:00.839Z,20.70
2018-11-28T12:12:00.927Z,21.50
2018-11-28T12:13:01.019Z,26.10
2018-11-28T12:14:01.108Z,23.10
2018-11-28T12:15:01.197Z,21.30
2018-11-28T12:16:01.357Z,21.90
2018-11-28T12:17:01.381Z,21.80
2018-11-28T12:18:01.468Z,20.30
2018-11-28T12:19:01.555Z,23.70
2018-11-28T12:20:01.648Z,22.80
2018-11-28T12:21:01.742Z,23.20
2018-11-28T12:22:01.844Z,25.10
2018-11-28T12:23:01.930Z,21.90
2018-11-28T12:24:02.021Z,22.80
2018-11-28T12:25:02.115Z,24.10
2018-11-28T12:26:02.210Z,22.50
2018-11-28T12:27:02.302Z,27.60
2018-11-28T12:28:02.405Z,26.40
2018-11-28T12:29:02.494Z,24.60
2018-11-28T12:30:02.630Z,27.90
2018-11-28T12:31:02.725Z,25.10
2018-11-28T12:32:02.816Z,22.90
2018-11-28T12:33:02.909Z,25.30
2018-11-28T12:34:03.003Z,26.60
2018-11-28T12:35:03.113Z,26.60
2018-11-28T12:36:03.211Z,24.30
2018-11-28T12:37:03.305Z,24.60
2018-11-28T12:38:04.233Z,25.70
2018-11-28T12:39:03.479Z,25.70
2018-11-28T12:40:03.570Z,24.40
2018-11-28T12:41:03.667Z,21.40
2018-11-28T12:42:03.750Z,21.70
2018-11-28T12:43:03.851Z,23.70
2018-11-28T12:44:03.950Z,22.40
2018-11-28T12:45:04.038Z,22.80
2018-11-28T12:46:04.129Z,22.60
2018-11-28T12:47:04.222Z,23.50
2018-11-28T12:48:04.331Z,24.80
2018-11-28T12:49:04.437Z,22.80
2018-11-28T12:50:04.522Z,22.40
2018-11-28T12:51:04.653Z,23.00
2018-11-28T12:54:48.369Z,22.50
2018-11-28T12:55:48.458Z,22.50
2018-11-28T12:56:48.545Z,20.80
2018-11-28T12:57:48.635Z,22.40
2018-11-28T12:58:48.724Z,23.00
2018-11-28T12:59:48.814Z,23.70